KGUCKTEX

Guest
Details From KGUC - Gunnison Crested Butte Rgnl
To KTEX - Telluride Rgnl
Flight Number -
Tags generated
Created
Modified
Stats Distance 58 nm / 107 km
Max Altitude 2,400 ft / 732 m
Waypoints 3
Social Downloads 1
Likes 0
Share VATSIM

Download

Looking for another format? Having issues loading an existing format? Contact us
Advertisement - Login to hide

Notes

Basic altitude profile: - Ascent Rate: 2500ft/min - Ascent Speed: 250kts - Cruise Altitude: 35000ft - Cruise Speed: 420kts - Descent Rate: 1500ft/min - Descent Speed: 250kts Options: - Use NATs: yes - Use PACOTS: yes - Use low airways: yes - Use high airways: yes

Route

KGUC HBU KTEX

ID Type Via Altitude Latitude Longitude Leg Dist Tot Dist Heading (true) Name
O KGUC APT - 0 ft / 0 m 38.53224˚ -106.93436˚ - 0 nm - Gunnison Crested Butte Rgnl
HBU DME - 2,400 ft / 732 m 38.45215˚ -107.03979˚ 6 nm 6 nm 226° / 226° BLUE MESA VOR-DME
O KTEX APT - 0 ft / 0 m 37.95381˚ -107.90874˚ 50 nm 57 nm 234° / 234° Telluride Rgnl

Altitude Profile

Advertisement - Login to hide

KGUC

Details ICAO KGUC (GUC)
Name Gunnison Crested Butte Rgnl
Region United States
Timezone America/Denver (UTC-7.0)
Stats Elevation 7,678 ft / 2,340 m (AMSL)
Location 38.532243° -106.934363°
Runways 2
Magnetic Variation 9.052° E

METAR

KGUC 110556Z AUTO 04003KT 10SM CLR M13/M18 A3061 RMK AO2 SLP451 T11281183 10000 21139 400611200 53014 FZRANO

Decode

TAF

TAF KGUC 110520Z 1106/1206 VRB04KT P6SM SKC

Decode

Departure Runways

ID Width Length Bearing (true) Bearing (mag) Surface Threshold Offset Overrun Length
06 151 ft / 46 m 9,379 ft / 2,859 m 73.48° 64.43° Asphalt 0 ft / 0 m 1,076 ft / 328 m
17 151 ft / 46 m 3,005 ft / 916 m 180.01° 170.96° Gravel 0 ft / 0 m 0 ft / 0 m
24 151 ft / 46 m 9,379 ft / 2,859 m 253.50° 244.45° Asphalt 0 ft / 0 m 200 ft / 61 m
35 151 ft / 46 m 3,005 ft / 916 m 0.01° 350.96° Gravel 200 ft / 61 m 0 ft / 0 m

KTEX

Details ICAO KTEX (TEX)
Name Telluride Rgnl
Region United States
Timezone America/Denver (UTC-7.0)
Stats Elevation 9,078 ft / 2,767 m (AMSL)
Location 37.953812° -107.908742°
Runways 1
Magnetic Variation 9.421° E

METAR

KTEX 110735Z AUTO 12005KT 10SM CLR M01/M23 A3058 RMK AO2 T10131231

Decode

TAF

TAF KTEX 110520Z 1106/1206 13007KT P6SM SKC FM111900 27008G15KT P6SM SKC FM120000 VRB05KT P6SM SKC

Decode

Destination Runways

ID Width Length Bearing (true) Bearing (mag) Surface Threshold Offset Overrun Length
09 98 ft / 30 m 7,095 ft / 2,163 m 104.96° 95.54° Asphalt 200 ft / 61 m 400 ft / 122 m
27 98 ft / 30 m 7,095 ft / 2,163 m 284.98° 275.56° Asphalt 200 ft / 61 m 400 ft / 122 m

Approach Navaids

Runway Type Ident Frequency Range Bearing (true) Bearing (mag) Slope Elevation
09 Localiser ITEX 109.30 MHz 18 nm / 33 km 102.00° 92.58° - 9,078 ft / 2,767 m (AMSL)
09 DME ITEX 109.30 MHz 18 nm / 33 km - - - 9,078 ft / 2,767 m (AMSL)